メインページ
METAR-TAF:

METAR-TAF

空港 :

カイロ, エジプト

カイロ国際空港

緯度: 30-08N, 経度: 031-24E, 海抜: 64m

現時点の気象観測

当レポートは19分前の23:00(UTC)に作成
北東の風 9kt
気温 24°C
湿度 65%
気圧 1012 hPa
視程10km以上
1,500メートル以下は雲なし、積乱雲なし

METAR: HECA 272300Z 05009KT CAVOK 24/17 Q1012 NOSIG

時間: 01:19 (23:19 UTC)

予報

当レポートは6時間19分前の17:00(UTC)に作成
予報は27日の 18時(UTC)から 28日の 24時(UTC)まで有効
西/北西の風 10kt、最大20ktの突風を伴う
視程10km以上
1,500メートル以下は雲なし、積乱雲なし
28日の 00時(UTC)から 28日の 08時(UTC)まで一時的に
変向風 3kt

TAF: HECA 271700Z 2718/2824 30010G20KT CAVOK TEMPO 2800/2808 VRB03KT

4,000以上の空港の気象観測と天気予報(METAR報とTAF報)

利用可能な観測所は地図上に黄色い丸と赤い丸で示す。

丸の上にカーソルを重ねると観測所名を参照できる。

次にクリックすると気象観測と天気予報を参照できる。

マップの切り替え:黒色「×」印の緑ボタンをクリックして拡大、「-」印の緑ボタンをクリックして縮小、緑色の三角印をクリックして隣りの地図に切り替え


METAR-TAF: